sensor_id;sensor_type;location;lat;lon;timestamp;P1;durP1;ratioP1;P2;durP2;ratioP2
27833;SDS011;15200;50.570;7.244;2022-11-15T00:01:25;15.50;;;10.70;;
27833;SDS011;15200;50.570;7.244;2022-11-15T00:03:52;13.78;;;9.03;;
27833;SDS011;15200;50.570;7.244;2022-11-15T00:06:19;14.50;;;9.43;;
27833;SDS011;15200;50.570;7.244;2022-11-15T00:08:47;17.10;;;10.03;;
27833;SDS011;15200;50.570;7.244;2022-11-15T00:11:14;16.15;;;10.40;;
27833;SDS011;15200;50.570;7.244;2022-11-15T00:13:41;13.20;;;9.75;;
27833;SDS011;15200;50.570;7.244;2022-11-15T00:16:09;12.05;;;9.30;;
27833;SDS011;15200;50.570;7.244;2022-11-15T00:18:37;11.73;;;9.28;;
27833;SDS011;15200;50.570;7.244;2022-11-15T00:21:05;14.15;;;9.18;;
27833;SDS011;15200;50.570;7.244;2022-11-15T00:23:33;14.13;;;9.35;;
27833;SDS011;15200;50.570;7.244;2022-11-15T00:26:00;14.68;;;9.40;;
27833;SDS011;15200;50.570;7.244;2022-11-15T00:28:28;11.53;;;8.75;;
27833;SDS011;15200;50.570;7.244;2022-11-15T00:31:06;12.63;;;9.85;;
27833;SDS011;15200;50.570;7.244;2022-11-15T00:33:30;12.50;;;8.78;;
27833;SDS011;15200;50.570;7.244;2022-11-15T00:36:01;12.43;;;8.40;;
27833;SDS011;15200;50.570;7.244;2022-11-15T00:38:31;12.82;;;8.85;;
27833;SDS011;15200;50.570;7.244;2022-11-15T00:40:59;12.10;;;8.60;;
27833;SDS011;15200;50.570;7.244;2022-11-15T00:43:26;11.08;;;7.95;;
27833;SDS011;15200;50.570;7.244;2022-11-15T00:45:53;10.53;;;8.20;;
27833;SDS011;15200;50.570;7.244;2022-11-15T00:48:21;10.70;;;7.72;;
27833;SDS011;15200;50.570;7.244;2022-11-15T00:50:48;10.35;;;7.45;;
27833;SDS011;15200;50.570;7.244;2022-11-15T00:53:16;10.35;;;7.03;;
27833;SDS011;15200;50.570;7.244;2022-11-15T00:55:43;9.55;;;7.50;;
27833;SDS011;15200;50.570;7.244;2022-11-15T00:58:10;12.30;;;7.90;;
27833;SDS011;15200;50.570;7.244;2022-11-15T01:00:38;9.63;;;7.35;;
27833;SDS011;15200;50.570;7.244;2022-11-15T01:03:06;9.23;;;7.72;;
27833;SDS011;15200;50.570;7.244;2022-11-15T01:05:33;9.90;;;7.53;;
27833;SDS011;15200;50.570;7.244;2022-11-15T01:08:00;14.30;;;8.48;;
27833;SDS011;15200;50.570;7.244;2022-11-15T01:10:28;9.60;;;7.50;;
27833;SDS011;15200;50.570;7.244;2022-11-15T01:12:55;9.18;;;6.97;;
27833;SDS011;15200;50.570;7.244;2022-11-15T01:15:22;15.40;;;8.48;;
27833;SDS011;15200;50.570;7.244;2022-11-15T01:17:50;10.58;;;8.23;;
27833;SDS011;15200;50.570;7.244;2022-11-15T01:20:17;13.70;;;8.05;;
27833;SDS011;15200;50.570;7.244;2022-11-15T01:22:45;16.15;;;8.18;;
27833;SDS011;15200;50.570;7.244;2022-11-15T01:25:12;12.00;;;7.35;;
27833;SDS011;15200;50.570;7.244;2022-11-15T01:27:39;13.43;;;8.15;;
27833;SDS011;15200;50.570;7.244;2022-11-15T01:30:07;10.58;;;7.50;;
27833;SDS011;15200;50.570;7.244;2022-11-15T01:32:34;15.50;;;8.53;;
27833;SDS011;15200;50.570;7.244;2022-11-15T01:35:02;12.55;;;8.25;;
27833;SDS011;15200;50.570;7.244;2022-11-15T01:37:29;11.25;;;7.75;;
27833;SDS011;15200;50.570;7.244;2022-11-15T01:39:56;10.25;;;7.58;;
27833;SDS011;15200;50.570;7.244;2022-11-15T01:42:24;13.00;;;7.25;;
27833;SDS011;15200;50.570;7.244;2022-11-15T01:44:51;10.78;;;6.17;;
27833;SDS011;15200;50.570;7.244;2022-11-15T01:47:54;10.48;;;7.08;;
27833;SDS011;15200;50.570;7.244;2022-11-15T01:52:42;8.45;;;6.00;;
27833;SDS011;15200;50.570;7.244;2022-11-15T01:55:14;12.95;;;6.45;;
27833;SDS011;15200;50.570;7.244;2022-11-15T01:57:38;7.28;;;6.45;;
27833;SDS011;15200;50.570;7.244;2022-11-15T02:00:06;9.80;;;6.33;;
27833;SDS011;15200;50.570;7.244;2022-11-15T02:02:34;8.70;;;6.78;;
27833;SDS011;15200;50.570;7.244;2022-11-15T02:05:03;9.95;;;6.00;;
27833;SDS011;15200;50.570;7.244;2022-11-15T02:07:31;9.58;;;6.55;;
27833;SDS011;15200;50.570;7.244;2022-11-15T02:09:59;7.45;;;6.08;;
27833;SDS011;15200;50.570;7.244;2022-11-15T02:12:28;8.75;;;5.80;;
27833;SDS011;15200;50.570;7.244;2022-11-15T02:14:55;11.15;;;6.60;;
27833;SDS011;15200;50.570;7.244;2022-11-15T02:17:32;7.08;;;5.42;;
27833;SDS011;15200;50.570;7.244;2022-11-15T02:20:08;9.68;;;6.15;;
27833;SDS011;15200;50.570;7.244;2022-11-15T02:22:51;8.50;;;5.80;;
27833;SDS011;15200;50.570;7.244;2022-11-15T02:28:06;8.73;;;6.15;;
27833;SDS011;15200;50.570;7.244;2022-11-15T02:35:50;6.10;;;5.50;;
27833;SDS011;15200;50.570;7.244;2022-11-15T02:38:19;7.05;;;5.20;;
27833;SDS011;15200;50.570;7.244;2022-11-15T02:40:49;7.70;;;5.50;;
27833;SDS011;15200;50.570;7.244;2022-11-15T02:43:18;7.12;;;5.78;;
27833;SDS011;15200;50.570;7.244;2022-11-15T02:46:03;8.85;;;6.03;;
27833;SDS011;15200;50.570;7.244;2022-11-15T02:48:30;5.97;;;4.95;;
27833;SDS011;15200;50.570;7.244;2022-11-15T02:50:58;8.50;;;5.55;;
27833;SDS011;15200;50.570;7.244;2022-11-15T02:53:26;7.80;;;5.47;;
27833;SDS011;15200;50.570;7.244;2022-11-15T02:55:54;8.65;;;5.70;;
27833;SDS011;15200;50.570;7.244;2022-11-15T02:58:38;8.25;;;5.35;;
27833;SDS011;15200;50.570;7.244;2022-11-15T03:01:50;6.85;;;5.17;;
27833;SDS011;15200;50.570;7.244;2022-11-15T03:09:01;9.28;;;5.70;;
27833;SDS011;15200;50.570;7.244;2022-11-15T03:11:26;9.23;;;6.50;;
27833;SDS011;15200;50.570;7.244;2022-11-15T03:13:58;7.45;;;5.62;;
27833;SDS011;15200;50.570;7.244;2022-11-15T03:16:30;7.97;;;5.90;;
27833;SDS011;15200;50.570;7.244;2022-11-15T03:19:12;8.58;;;6.08;;
27833;SDS011;15200;50.570;7.244;2022-11-15T03:21:35;9.00;;;6.40;;
27833;SDS011;15200;50.570;7.244;2022-11-15T03:24:05;8.53;;;6.50;;
27833;SDS011;15200;50.570;7.244;2022-11-15T03:26:33;8.33;;;6.30;;
27833;SDS011;15200;50.570;7.244;2022-11-15T03:29:13;11.08;;;7.85;;
27833;SDS011;15200;50.570;7.244;2022-11-15T03:31:32;13.80;;;7.47;;
27833;SDS011;15200;50.570;7.244;2022-11-15T03:36:46;8.43;;;6.20;;
27833;SDS011;15200;50.570;7.244;2022-11-15T03:39:14;8.78;;;6.85;;
27833;SDS011;15200;50.570;7.244;2022-11-15T03:41:59;8.83;;;6.85;;
27833;SDS011;15200;50.570;7.244;2022-11-15T03:44:31;7.62;;;5.95;;
27833;SDS011;15200;50.570;7.244;2022-11-15T03:46:58;11.12;;;6.87;;
27833;SDS011;15200;50.570;7.244;2022-11-15T03:49:27;7.53;;;6.53;;
27833;SDS011;15200;50.570;7.244;2022-11-15T03:51:56;11.22;;;6.47;;
27833;SDS011;15200;50.570;7.244;2022-11-15T03:54:23;10.20;;;7.67;;
27833;SDS011;15200;50.570;7.244;2022-11-15T03:56:51;9.70;;;7.47;;
27833;SDS011;15200;50.570;7.244;2022-11-15T03:59:18;10.95;;;7.58;;
27833;SDS011;15200;50.570;7.244;2022-11-15T04:01:45;9.45;;;7.45;;
27833;SDS011;15200;50.570;7.244;2022-11-15T04:04:13;9.35;;;7.30;;
27833;SDS011;15200;50.570;7.244;2022-11-15T04:06:40;9.68;;;6.53;;
27833;SDS011;15200;50.570;7.244;2022-11-15T04:09:07;6.62;;;5.75;;
27833;SDS011;15200;50.570;7.244;2022-11-15T04:11:35;7.58;;;6.05;;
27833;SDS011;15200;50.570;7.244;2022-11-15T04:14:02;6.78;;;5.28;;
27833;SDS011;15200;50.570;7.244;2022-11-15T04:16:29;7.42;;;5.47;;
27833;SDS011;15200;50.570;7.244;2022-11-15T04:18:56;6.50;;;5.75;;
27833;SDS011;15200;50.570;7.244;2022-11-15T04:21:42;7.37;;;5.90;;
27833;SDS011;15200;50.570;7.244;2022-11-15T04:24:27;6.95;;;5.03;;
27833;SDS011;15200;50.570;7.244;2022-11-15T04:26:55;9.00;;;5.17;;
27833;SDS011;15200;50.570;7.244;2022-11-15T04:29:22;7.75;;;5.10;;
27833;SDS011;15200;50.570;7.244;2022-11-15T04:32:02;7.53;;;5.45;;
27833;SDS011;15200;50.570;7.244;2022-11-15T04:34:29;6.00;;;4.85;;
27833;SDS011;15200;50.570;7.244;2022-11-15T04:36:56;7.53;;;4.83;;
27833;SDS011;15200;50.570;7.244;2022-11-15T04:39:39;5.67;;;4.60;;
27833;SDS011;15200;50.570;7.244;2022-11-15T04:42:07;7.37;;;4.87;;
27833;SDS011;15200;50.570;7.244;2022-11-15T04:44:34;6.58;;;4.97;;
27833;SDS011;15200;50.570;7.244;2022-11-15T04:47:02;7.30;;;5.12;;
27833;SDS011;15200;50.570;7.244;2022-11-15T04:49:29;6.87;;;5.28;;
27833;SDS011;15200;50.570;7.244;2022-11-15T04:51:56;10.63;;;5.62;;
27833;SDS011;15200;50.570;7.244;2022-11-15T04:54:24;6.17;;;4.70;;
27833;SDS011;15200;50.570;7.244;2022-11-15T04:56:51;4.90;;;4.40;;
27833;SDS011;15200;50.570;7.244;2022-11-15T04:59:18;5.15;;;3.98;;
27833;SDS011;15200;50.570;7.244;2022-11-15T05:01:45;6.03;;;4.83;;
27833;SDS011;15200;50.570;7.244;2022-11-15T05:04:13;5.80;;;3.95;;
27833;SDS011;15200;50.570;7.244;2022-11-15T05:06:49;5.30;;;4.15;;
27833;SDS011;15200;50.570;7.244;2022-11-15T05:09:20;6.25;;;4.05;;
27833;SDS011;15200;50.570;7.244;2022-11-15T05:12:08;5.42;;;3.98;;
27833;SDS011;15200;50.570;7.244;2022-11-15T05:14:35;5.17;;;3.90;;
27833;SDS011;15200;50.570;7.244;2022-11-15T05:17:02;7.85;;;4.05;;
27833;SDS011;15200;50.570;7.244;2022-11-15T05:19:30;5.45;;;3.77;;
27833;SDS011;15200;50.570;7.244;2022-11-15T05:21:57;7.25;;;3.65;;
27833;SDS011;15200;50.570;7.244;2022-11-15T05:24:24;5.87;;;3.60;;
27833;SDS011;15200;50.570;7.244;2022-11-15T05:26:52;6.62;;;3.83;;
27833;SDS011;15200;50.570;7.244;2022-11-15T05:29:19;4.55;;;3.52;;
27833;SDS011;15200;50.570;7.244;2022-11-15T05:31:46;4.53;;;3.27;;
27833;SDS011;15200;50.570;7.244;2022-11-15T05:34:14;3.92;;;3.55;;
27833;SDS011;15200;50.570;7.244;2022-11-15T05:36:41;6.72;;;3.92;;
27833;SDS011;15200;50.570;7.244;2022-11-15T05:39:09;4.70;;;3.83;;
27833;SDS011;15200;50.570;7.244;2022-11-15T05:41:44;5.53;;;4.10;;
27833;SDS011;15200;50.570;7.244;2022-11-15T05:44:09;8.35;;;4.33;;
27833;SDS011;15200;50.570;7.244;2022-11-15T05:46:37;5.67;;;3.90;;
27833;SDS011;15200;50.570;7.244;2022-11-15T05:49:06;5.83;;;3.40;;
27833;SDS011;15200;50.570;7.244;2022-11-15T05:51:34;4.40;;;4.00;;
27833;SDS011;15200;50.570;7.244;2022-11-15T05:54:01;4.15;;;3.75;;
27833;SDS011;15200;50.570;7.244;2022-11-15T05:56:29;6.22;;;4.12;;
27833;SDS011;15200;50.570;7.244;2022-11-15T05:58:57;7.28;;;4.65;;
27833;SDS011;15200;50.570;7.244;2022-11-15T06:01:24;7.25;;;4.10;;
27833;SDS011;15200;50.570;7.244;2022-11-15T06:03:52;4.28;;;3.65;;
27833;SDS011;15200;50.570;7.244;2022-11-15T06:06:19;5.45;;;3.98;;
27833;SDS011;15200;50.570;7.244;2022-11-15T06:08:47;5.95;;;3.80;;
27833;SDS011;15200;50.570;7.244;2022-11-15T06:11:14;5.62;;;3.70;;
27833;SDS011;15200;50.570;7.244;2022-11-15T06:13:42;5.92;;;3.83;;
27833;SDS011;15200;50.570;7.244;2022-11-15T06:16:09;4.03;;;3.58;;
27833;SDS011;15200;50.570;7.244;2022-11-15T06:18:36;4.60;;;3.92;;
27833;SDS011;15200;50.570;7.244;2022-11-15T06:21:04;4.37;;;3.35;;
27833;SDS011;15200;50.570;7.244;2022-11-15T06:23:32;5.55;;;3.50;;
27833;SDS011;15200;50.570;7.244;2022-11-15T06:26:00;4.22;;;3.62;;
27833;SDS011;15200;50.570;7.244;2022-11-15T06:28:28;5.28;;;4.00;;
27833;SDS011;15200;50.570;7.244;2022-11-15T06:30:56;5.10;;;4.12;;
27833;SDS011;15200;50.570;7.244;2022-11-15T06:33:23;4.35;;;3.50;;
27833;SDS011;15200;50.570;7.244;2022-11-15T06:35:50;9.78;;;4.05;;
27833;SDS011;15200;50.570;7.244;2022-11-15T06:38:18;3.98;;;3.45;;
27833;SDS011;15200;50.570;7.244;2022-11-15T06:40:45;3.35;;;3.00;;
27833;SDS011;15200;50.570;7.244;2022-11-15T06:43:12;4.85;;;3.65;;
27833;SDS011;15200;50.570;7.244;2022-11-15T06:45:41;4.25;;;3.72;;
27833;SDS011;15200;50.570;7.244;2022-11-15T06:48:08;4.17;;;3.50;;
27833;SDS011;15200;50.570;7.244;2022-11-15T06:50:35;4.45;;;3.77;;
27833;SDS011;15200;50.570;7.244;2022-11-15T06:53:03;5.20;;;3.62;;
27833;SDS011;15200;50.570;7.244;2022-11-15T06:55:30;4.65;;;3.72;;
27833;SDS011;15200;50.570;7.244;2022-11-15T06:57:57;6.62;;;4.20;;
27833;SDS011;15200;50.570;7.244;2022-11-15T07:00:25;5.35;;;4.45;;
27833;SDS011;15200;50.570;7.244;2022-11-15T07:02:52;6.37;;;4.22;;
27833;SDS011;15200;50.570;7.244;2022-11-15T07:05:19;5.35;;;4.85;;
27833;SDS011;15200;50.570;7.244;2022-11-15T07:07:53;6.95;;;4.50;;
27833;SDS011;15200;50.570;7.244;2022-11-15T07:10:21;6.22;;;4.03;;
27833;SDS011;15200;50.570;7.244;2022-11-15T07:12:51;5.55;;;3.83;;
27833;SDS011;15200;50.570;7.244;2022-11-15T07:15:19;4.90;;;3.77;;
27833;SDS011;15200;50.570;7.244;2022-11-15T07:17:46;5.70;;;3.85;;
27833;SDS011;15200;50.570;7.244;2022-11-15T07:20:14;5.30;;;3.52;;
27833;SDS011;15200;50.570;7.244;2022-11-15T07:22:42;7.20;;;3.65;;
27833;SDS011;15200;50.570;7.244;2022-11-15T07:25:11;4.62;;;3.33;;
27833;SDS011;15200;50.570;7.244;2022-11-15T07:27:38;4.35;;;3.10;;
27833;SDS011;15200;50.570;7.244;2022-11-15T07:30:06;4.87;;;3.58;;
27833;SDS011;15200;50.570;7.244;2022-11-15T07:32:34;4.92;;;3.08;;
27833;SDS011;15200;50.570;7.244;2022-11-15T07:35:02;3.90;;;3.15;;
27833;SDS011;15200;50.570;7.244;2022-11-15T07:37:29;5.00;;;3.55;;
27833;SDS011;15200;50.570;7.244;2022-11-15T07:39:56;4.17;;;3.45;;
27833;SDS011;15200;50.570;7.244;2022-11-15T07:42:24;5.78;;;4.10;;
27833;SDS011;15200;50.570;7.244;2022-11-15T07:45:09;6.70;;;3.40;;
27833;SDS011;15200;50.570;7.244;2022-11-15T07:47:36;8.58;;;3.65;;
27833;SDS011;15200;50.570;7.244;2022-11-15T07:50:04;8.40;;;4.00;;
27833;SDS011;15200;50.570;7.244;2022-11-15T07:52:31;3.40;;;3.10;;
27833;SDS011;15200;50.570;7.244;2022-11-15T07:54:58;9.00;;;3.33;;
27833;SDS011;15200;50.570;7.244;2022-11-15T07:57:26;4.22;;;3.08;;
27833;SDS011;15200;50.570;7.244;2022-11-15T07:59:53;5.03;;;3.47;;
27833;SDS011;15200;50.570;7.244;2022-11-15T08:02:20;4.42;;;3.35;;
27833;SDS011;15200;50.570;7.244;2022-11-15T08:04:48;3.33;;;2.92;;
27833;SDS011;15200;50.570;7.244;2022-11-15T08:07:15;4.28;;;3.50;;
27833;SDS011;15200;50.570;7.244;2022-11-15T08:09:42;7.83;;;3.25;;
27833;SDS011;15200;50.570;7.244;2022-11-15T08:12:10;6.30;;;3.27;;
27833;SDS011;15200;50.570;7.244;2022-11-15T08:14:37;4.22;;;2.67;;
27833;SDS011;15200;50.570;7.244;2022-11-15T08:17:04;5.83;;;2.45;;
27833;SDS011;15200;50.570;7.244;2022-11-15T08:19:32;4.90;;;2.87;;
27833;SDS011;15200;50.570;7.244;2022-11-15T08:21:59;6.53;;;2.72;;
27833;SDS011;15200;50.570;7.244;2022-11-15T08:24:27;3.77;;;2.55;;
27833;SDS011;15200;50.570;7.244;2022-11-15T08:26:54;3.20;;;2.40;;
27833;SDS011;15200;50.570;7.244;2022-11-15T08:29:21;7.12;;;2.90;;
27833;SDS011;15200;50.570;7.244;2022-11-15T08:31:49;3.83;;;2.70;;
27833;SDS011;15200;50.570;7.244;2022-11-15T08:34:16;3.85;;;2.55;;
27833;SDS011;15200;50.570;7.244;2022-11-15T08:36:46;2.92;;;2.42;;
27833;SDS011;15200;50.570;7.244;2022-11-15T08:39:13;7.42;;;2.58;;
27833;SDS011;15200;50.570;7.244;2022-11-15T08:41:41;6.40;;;2.42;;
27833;SDS011;15200;50.570;7.244;2022-11-15T08:44:08;4.40;;;2.35;;
27833;SDS011;15200;50.570;7.244;2022-11-15T08:46:35;3.08;;;1.95;;
27833;SDS011;15200;50.570;7.244;2022-11-15T08:49:02;3.72;;;1.90;;
27833;SDS011;15200;50.570;7.244;2022-11-15T08:51:30;4.05;;;1.65;;
27833;SDS011;15200;50.570;7.244;2022-11-15T08:53:57;6.33;;;2.22;;
27833;SDS011;15200;50.570;7.244;2022-11-15T08:56:25;1.75;;;1.40;;
27833;SDS011;15200;50.570;7.244;2022-11-15T08:58:52;2.27;;;1.30;;
27833;SDS011;15200;50.570;7.244;2022-11-15T09:01:20;2.25;;;1.17;;
27833;SDS011;15200;50.570;7.244;2022-11-15T09:03:47;2.17;;;1.45;;
27833;SDS011;15200;50.570;7.244;2022-11-15T09:06:15;2.12;;;1.50;;
27833;SDS011;15200;50.570;7.244;2022-11-15T09:08:42;2.85;;;1.62;;
27833;SDS011;15200;50.570;7.244;2022-11-15T09:11:10;4.12;;;1.00;;
27833;SDS011;15200;50.570;7.244;2022-11-15T09:13:38;1.95;;;1.12;;
27833;SDS011;15200;50.570;7.244;2022-11-15T09:16:05;2.65;;;0.90;;
27833;SDS011;15200;50.570;7.244;2022-11-15T09:18:33;4.15;;;1.10;;
27833;SDS011;15200;50.570;7.244;2022-11-15T09:21:01;4.53;;;0.90;;
27833;SDS011;15200;50.570;7.244;2022-11-15T09:23:29;1.07;;;0.70;;
27833;SDS011;15200;50.570;7.244;2022-11-15T09:26:00;1.42;;;0.70;;
27833;SDS011;15200;50.570;7.244;2022-11-15T09:28:28;0.95;;;0.53;;
27833;SDS011;15200;50.570;7.244;2022-11-15T09:31:04;1.05;;;0.45;;
27833;SDS011;15200;50.570;7.244;2022-11-15T09:33:28;0.80;;;0.50;;
27833;SDS011;15200;50.570;7.244;2022-11-15T09:35:59;1.00;;;0.60;;
27833;SDS011;15200;50.570;7.244;2022-11-15T09:38:27;1.95;;;0.50;;
27833;SDS011;15200;50.570;7.244;2022-11-15T09:41:38;0.75;;;0.57;;
27833;SDS011;15200;50.570;7.244;2022-11-15T09:43:28;1.12;;;0.50;;
27833;SDS011;15200;50.570;7.244;2022-11-15T09:45:58;2.92;;;0.60;;
27833;SDS011;15200;50.570;7.244;2022-11-15T09:48:32;1.77;;;0.70;;
27833;SDS011;15200;50.570;7.244;2022-11-15T09:50:55;2.15;;;0.70;;
27833;SDS011;15200;50.570;7.244;2022-11-15T09:56:14;1.27;;;0.53;;
27833;SDS011;15200;50.570;7.244;2022-11-15T09:58:55;5.42;;;0.70;;
27833;SDS011;15200;50.570;7.244;2022-11-15T10:01:22;3.70;;;0.70;;
27833;SDS011;15200;50.570;7.244;2022-11-15T10:03:48;1.37;;;0.40;;
27833;SDS011;15200;50.570;7.244;2022-11-15T10:06:21;1.02;;;0.60;;
27833;SDS011;15200;50.570;7.244;2022-11-15T10:11:25;0.75;;;0.60;;
27833;SDS011;15200;50.570;7.244;2022-11-15T10:13:45;3.27;;;1.05;;
27833;SDS011;15200;50.570;7.244;2022-11-15T10:16:21;3.62;;;1.10;;
27833;SDS011;15200;50.570;7.244;2022-11-15T10:18:52;2.22;;;1.10;;
27833;SDS011;15200;50.570;7.244;2022-11-15T10:21:19;2.05;;;1.15;;
27833;SDS011;15200;50.570;7.244;2022-11-15T10:23:46;1.12;;;0.65;;
27833;SDS011;15200;50.570;7.244;2022-11-15T10:26:15;1.98;;;0.68;;
27833;SDS011;15200;50.570;7.244;2022-11-15T10:28:42;3.17;;;0.50;;
27833;SDS011;15200;50.570;7.244;2022-11-15T10:31:24;1.72;;;0.70;;
27833;SDS011;15200;50.570;7.244;2022-11-15T10:33:56;1.62;;;0.60;;
27833;SDS011;15200;50.570;7.244;2022-11-15T10:36:21;4.10;;;0.60;;
27833;SDS011;15200;50.570;7.244;2022-11-15T10:38:52;1.02;;;0.70;;
27833;SDS011;15200;50.570;7.244;2022-11-15T10:41:39;1.37;;;0.62;;
27833;SDS011;15200;50.570;7.244;2022-11-15T10:46:36;3.27;;;1.00;;
27833;SDS011;15200;50.570;7.244;2022-11-15T10:49:14;1.07;;;0.85;;
27833;SDS011;15200;50.570;7.244;2022-11-15T10:51:47;3.83;;;1.00;;
27833;SDS011;15200;50.570;7.244;2022-11-15T10:54:23;3.47;;;0.90;;
27833;SDS011;15200;50.570;7.244;2022-11-15T10:56:48;3.95;;;1.10;;
27833;SDS011;15200;50.570;7.244;2022-11-15T10:59:16;0.98;;;0.88;;
27833;SDS011;15200;50.570;7.244;2022-11-15T11:01:47;2.05;;;0.78;;
27833;SDS011;15200;50.570;7.244;2022-11-15T11:04:14;4.00;;;1.00;;
27833;SDS011;15200;50.570;7.244;2022-11-15T11:09:36;3.00;;;0.90;;
27833;SDS011;15200;50.570;7.244;2022-11-15T11:12:04;3.67;;;1.10;;
27833;SDS011;15200;50.570;7.244;2022-11-15T11:14:33;1.85;;;1.12;;
27833;SDS011;15200;50.570;7.244;2022-11-15T11:22:03;3.70;;;1.22;;
27833;SDS011;15200;50.570;7.244;2022-11-15T11:29:39;5.12;;;1.42;;
27833;SDS011;15200;50.570;7.244;2022-11-15T11:34:47;6.53;;;1.10;;
27833;SDS011;15200;50.570;7.244;2022-11-15T11:37:14;3.65;;;1.32;;
27833;SDS011;15200;50.570;7.244;2022-11-15T11:40:27;1.92;;;1.30;;
27833;SDS011;15200;50.570;7.244;2022-11-15T11:45:00;4.72;;;1.30;;
27833;SDS011;15200;50.570;7.244;2022-11-15T11:47:23;1.65;;;1.30;;
27833;SDS011;15200;50.570;7.244;2022-11-15T11:49:51;4.25;;;1.27;;
27833;SDS011;15200;50.570;7.244;2022-11-15T11:54:57;1.72;;;1.12;;
27833;SDS011;15200;50.570;7.244;2022-11-15T12:00:10;1.52;;;1.20;;
27833;SDS011;15200;50.570;7.244;2022-11-15T12:02:39;5.55;;;1.92;;
27833;SDS011;15200;50.570;7.244;2022-11-15T12:05:17;2.42;;;1.30;;
27833;SDS011;15200;50.570;7.244;2022-11-15T12:07:43;1.35;;;1.20;;
27833;SDS011;15200;50.570;7.244;2022-11-15T12:15:20;4.15;;;1.75;;
27833;SDS011;15200;50.570;7.244;2022-11-15T12:17:47;3.47;;;1.30;;
27833;SDS011;15200;50.570;7.244;2022-11-15T12:20:16;2.87;;;1.50;;
27833;SDS011;15200;50.570;7.244;2022-11-15T12:25:22;3.30;;;1.80;;
27833;SDS011;15200;50.570;7.244;2022-11-15T12:27:54;4.80;;;2.10;;
27833;SDS011;15200;50.570;7.244;2022-11-15T12:30:23;5.87;;;1.45;;
27833;SDS011;15200;50.570;7.244;2022-11-15T12:32:59;3.37;;;1.32;;
27833;SDS011;15200;50.570;7.244;2022-11-15T12:35:29;3.08;;;1.70;;
27833;SDS011;15200;50.570;7.244;2022-11-15T12:37:55;2.20;;;1.60;;
27833;SDS011;15200;50.570;7.244;2022-11-15T12:45:31;2.00;;;1.60;;
27833;SDS011;15200;50.570;7.244;2022-11-15T13:06:41;3.42;;;1.52;;
27833;SDS011;15200;50.570;7.244;2022-11-15T13:11:54;5.33;;;1.27;;
27833;SDS011;15200;50.570;7.244;2022-11-15T13:20:00;2.17;;;1.12;;
27833;SDS011;15200;50.570;7.244;2022-11-15T13:22:51;5.60;;;1.62;;
27833;SDS011;15200;50.570;7.244;2022-11-15T13:27:47;2.15;;;1.90;;
27833;SDS011;15200;50.570;7.244;2022-11-15T13:30:23;3.25;;;1.62;;
27833;SDS011;15200;50.570;7.244;2022-11-15T13:32:49;3.58;;;1.90;;
27833;SDS011;15200;50.570;7.244;2022-11-15T13:35:24;2.65;;;1.45;;
27833;SDS011;15200;50.570;7.244;2022-11-15T13:37:47;2.25;;;1.15;;
27833;SDS011;15200;50.570;7.244;2022-11-15T13:40:25;4.33;;;1.62;;
27833;SDS011;15200;50.570;7.244;2022-11-15T13:42:43;2.37;;;1.22;;
27833;SDS011;15200;50.570;7.244;2022-11-15T13:45:13;3.62;;;1.37;;
27833;SDS011;15200;50.570;7.244;2022-11-15T13:47:39;1.80;;;1.40;;
27833;SDS011;15200;50.570;7.244;2022-11-15T13:50:10;2.60;;;1.00;;
27833;SDS011;15200;50.570;7.244;2022-11-15T13:52:36;2.45;;;1.15;;
27833;SDS011;15200;50.570;7.244;2022-11-15T13:55:09;1.70;;;1.12;;
27833;SDS011;15200;50.570;7.244;2022-11-15T14:00:22;5.17;;;1.30;;
27833;SDS011;15200;50.570;7.244;2022-11-15T14:02:35;1.65;;;1.15;;
27833;SDS011;15200;50.570;7.244;2022-11-15T14:07:32;4.15;;;1.47;;
27833;SDS011;15200;50.570;7.244;2022-11-15T14:10:16;3.05;;;1.20;;
27833;SDS011;15200;50.570;7.244;2022-11-15T14:12:31;2.55;;;1.40;;
27833;SDS011;15200;50.570;7.244;2022-11-15T14:15:00;3.30;;;1.30;;
27833;SDS011;15200;50.570;7.244;2022-11-15T14:19:59;2.80;;;1.90;;
27833;SDS011;15200;50.570;7.244;2022-11-15T14:22:27;3.60;;;1.90;;
27833;SDS011;15200;50.570;7.244;2022-11-15T14:27:36;3.55;;;1.60;;
27833;SDS011;15200;50.570;7.244;2022-11-15T14:30:03;4.62;;;1.37;;
27833;SDS011;15200;50.570;7.244;2022-11-15T14:35:10;3.52;;;1.95;;
27833;SDS011;15200;50.570;7.244;2022-11-15T14:37:34;2.75;;;1.30;;
27833;SDS011;15200;50.570;7.244;2022-11-15T14:40:03;2.58;;;1.40;;
27833;SDS011;15200;50.570;7.244;2022-11-15T14:42:31;2.95;;;1.57;;
27833;SDS011;15200;50.570;7.244;2022-11-15T14:44:58;2.77;;;1.50;;
27833;SDS011;15200;50.570;7.244;2022-11-15T14:47:25;3.08;;;1.60;;
27833;SDS011;15200;50.570;7.244;2022-11-15T14:49:53;6.53;;;1.80;;
27833;SDS011;15200;50.570;7.244;2022-11-15T14:54:49;4.80;;;1.60;;
27833;SDS011;15200;50.570;7.244;2022-11-15T14:57:16;2.35;;;1.30;;
27833;SDS011;15200;50.570;7.244;2022-11-15T14:59:43;2.85;;;1.98;;
27833;SDS011;15200;50.570;7.244;2022-11-15T15:02:16;2.87;;;1.87;;
27833;SDS011;15200;50.570;7.244;2022-11-15T15:04:40;2.42;;;1.60;;
27833;SDS011;15200;50.570;7.244;2022-11-15T15:07:07;5.22;;;1.90;;
27833;SDS011;15200;50.570;7.244;2022-11-15T15:09:34;3.22;;;1.50;;
27833;SDS011;15200;50.570;7.244;2022-11-15T15:12:01;3.70;;;1.42;;
27833;SDS011;15200;50.570;7.244;2022-11-15T15:14:29;1.90;;;1.30;;
27833;SDS011;15200;50.570;7.244;2022-11-15T15:16:56;4.58;;;2.27;;
27833;SDS011;15200;50.570;7.244;2022-11-15T15:19:23;2.22;;;1.77;;
27833;SDS011;15200;50.570;7.244;2022-11-15T15:21:51;2.55;;;1.75;;
27833;SDS011;15200;50.570;7.244;2022-11-15T15:24:18;4.85;;;3.30;;
27833;SDS011;15200;50.570;7.244;2022-11-15T15:26:45;2.98;;;2.65;;
27833;SDS011;15200;50.570;7.244;2022-11-15T15:29:13;2.45;;;1.80;;
27833;SDS011;15200;50.570;7.244;2022-11-15T15:31:40;1.82;;;1.45;;
27833;SDS011;15200;50.570;7.244;2022-11-15T15:34:07;3.17;;;1.92;;
27833;SDS011;15200;50.570;7.244;2022-11-15T15:36:35;5.40;;;2.65;;
27833;SDS011;15200;50.570;7.244;2022-11-15T15:39:02;5.83;;;3.10;;
27833;SDS011;15200;50.570;7.244;2022-11-15T15:41:29;9.45;;;3.50;;
27833;SDS011;15200;50.570;7.244;2022-11-15T15:43:57;6.22;;;3.33;;
27833;SDS011;15200;50.570;7.244;2022-11-15T15:46:24;6.05;;;3.60;;
27833;SDS011;15200;50.570;7.244;2022-11-15T15:48:51;3.72;;;2.05;;
27833;SDS011;15200;50.570;7.244;2022-11-15T15:51:19;4.08;;;2.40;;
27833;SDS011;15200;50.570;7.244;2022-11-15T15:53:46;3.25;;;1.75;;
27833;SDS011;15200;50.570;7.244;2022-11-15T15:56:14;3.08;;;2.20;;
27833;SDS011;15200;50.570;7.244;2022-11-15T15:58:41;4.62;;;2.92;;
27833;SDS011;15200;50.570;7.244;2022-11-15T16:01:08;6.42;;;2.80;;
27833;SDS011;15200;50.570;7.244;2022-11-15T16:03:36;4.00;;;2.45;;
27833;SDS011;15200;50.570;7.244;2022-11-15T16:06:03;3.87;;;1.92;;
27833;SDS011;15200;50.570;7.244;2022-11-15T16:08:31;2.47;;;1.77;;
27833;SDS011;15200;50.570;7.244;2022-11-15T16:10:58;2.22;;;1.50;;
27833;SDS011;15200;50.570;7.244;2022-11-15T16:13:26;4.33;;;2.00;;
27833;SDS011;15200;50.570;7.244;2022-11-15T16:15:53;3.95;;;1.77;;
27833;SDS011;15200;50.570;7.244;2022-11-15T16:18:21;6.28;;;1.80;;
27833;SDS011;15200;50.570;7.244;2022-11-15T16:20:49;5.90;;;2.12;;
27833;SDS011;15200;50.570;7.244;2022-11-15T16:23:18;4.67;;;2.00;;
27833;SDS011;15200;50.570;7.244;2022-11-15T16:25:48;3.92;;;2.70;;
27833;SDS011;15200;50.570;7.244;2022-11-15T16:28:17;4.42;;;2.77;;
27833;SDS011;15200;50.570;7.244;2022-11-15T16:30:45;3.27;;;1.90;;
27833;SDS011;15200;50.570;7.244;2022-11-15T16:33:12;3.55;;;2.58;;
27833;SDS011;15200;50.570;7.244;2022-11-15T16:35:39;2.87;;;2.02;;
27833;SDS011;15200;50.570;7.244;2022-11-15T16:38:08;2.65;;;1.98;;
27833;SDS011;15200;50.570;7.244;2022-11-15T16:40:35;7.40;;;2.33;;
27833;SDS011;15200;50.570;7.244;2022-11-15T16:43:03;4.42;;;2.52;;